sensor_id;sensor_type;location;lat;lon;timestamp;P1;durP1;ratioP1;P2;durP2;ratioP2
29202;SDS011;16245;51.170;4.884;2023-03-24T00:01:02;6.05;;;2.58;;
29202;SDS011;16245;51.170;4.884;2023-03-24T00:03:29;3.53;;;2.58;;
29202;SDS011;16245;51.170;4.884;2023-03-24T00:05:58;5.38;;;2.58;;
29202;SDS011;16245;51.170;4.884;2023-03-24T00:08:29;5.82;;;2.70;;
29202;SDS011;16245;51.170;4.884;2023-03-24T00:10:59;3.78;;;2.40;;
29202;SDS011;16245;51.170;4.884;2023-03-24T00:13:28;3.45;;;2.63;;
29202;SDS011;16245;51.170;4.884;2023-03-24T00:15:56;5.05;;;2.05;;
29202;SDS011;16245;51.170;4.884;2023-03-24T00:18:23;4.18;;;1.98;;
29202;SDS011;16245;51.170;4.884;2023-03-24T00:20:52;4.05;;;2.00;;
29202;SDS011;16245;51.170;4.884;2023-03-24T00:23:26;5.18;;;2.20;;
29202;SDS011;16245;51.170;4.884;2023-03-24T00:26:06;3.67;;;2.33;;
29202;SDS011;16245;51.170;4.884;2023-03-24T00:28:36;4.63;;;2.25;;
29202;SDS011;16245;51.170;4.884;2023-03-24T00:31:03;4.60;;;1.88;;
29202;SDS011;16245;51.170;4.884;2023-03-24T00:33:30;4.93;;;2.47;;
29202;SDS011;16245;51.170;4.884;2023-03-24T00:35:58;2.92;;;2.00;;
29202;SDS011;16245;51.170;4.884;2023-03-24T00:38:25;3.08;;;2.20;;
29202;SDS011;16245;51.170;4.884;2023-03-24T00:40:51;4.70;;;2.03;;
29202;SDS011;16245;51.170;4.884;2023-03-24T00:43:17;4.68;;;2.30;;
29202;SDS011;16245;51.170;4.884;2023-03-24T00:45:44;6.35;;;2.20;;
29202;SDS011;16245;51.170;4.884;2023-03-24T00:48:14;5.35;;;2.10;;
29202;SDS011;16245;51.170;4.884;2023-03-24T00:50:49;2.13;;;1.98;;
29202;SDS011;16245;51.170;4.884;2023-03-24T00:53:16;6.28;;;3.15;;
29202;SDS011;16245;51.170;4.884;2023-03-24T00:55:44;3.63;;;2.00;;
29202;SDS011;16245;51.170;4.884;2023-03-24T00:58:12;3.72;;;2.22;;
29202;SDS011;16245;51.170;4.884;2023-03-24T01:00:45;3.42;;;1.98;;
29202;SDS011;16245;51.170;4.884;2023-03-24T01:03:13;5.53;;;2.33;;
29202;SDS011;16245;51.170;4.884;2023-03-24T01:05:39;3.90;;;2.17;;
29202;SDS011;16245;51.170;4.884;2023-03-24T01:08:06;4.10;;;2.33;;
29202;SDS011;16245;51.170;4.884;2023-03-24T01:10:35;5.25;;;2.50;;
29202;SDS011;16245;51.170;4.884;2023-03-24T01:13:14;5.75;;;2.30;;
29202;SDS011;16245;51.170;4.884;2023-03-24T01:15:41;3.63;;;2.20;;
29202;SDS011;16245;51.170;4.884;2023-03-24T01:18:07;3.28;;;2.30;;
29202;SDS011;16245;51.170;4.884;2023-03-24T01:20:34;4.78;;;2.38;;
29202;SDS011;16245;51.170;4.884;2023-03-24T01:23:01;4.22;;;2.20;;
29202;SDS011;16245;51.170;4.884;2023-03-24T01:25:29;2.83;;;2.10;;
29202;SDS011;16245;51.170;4.884;2023-03-24T01:27:55;3.17;;;2.22;;
29202;SDS011;16245;51.170;4.884;2023-03-24T01:30:23;3.85;;;2.25;;
29202;SDS011;16245;51.170;4.884;2023-03-24T01:32:51;2.67;;;1.88;;
29202;SDS011;16245;51.170;4.884;2023-03-24T01:35:18;2.08;;;1.80;;
29202;SDS011;16245;51.170;4.884;2023-03-24T01:37:45;3.05;;;2.17;;
29202;SDS011;16245;51.170;4.884;2023-03-24T01:40:18;5.97;;;2.42;;
29202;SDS011;16245;51.170;4.884;2023-03-24T01:42:45;5.40;;;2.15;;
29202;SDS011;16245;51.170;4.884;2023-03-24T01:48:18;7.32;;;2.35;;
29202;SDS011;16245;51.170;4.884;2023-03-24T01:50:50;4.88;;;2.83;;
29202;SDS011;16245;51.170;4.884;2023-03-24T01:53:20;4.22;;;2.15;;
29202;SDS011;16245;51.170;4.884;2023-03-24T01:55:46;3.63;;;2.40;;
29202;SDS011;16245;51.170;4.884;2023-03-24T01:58:13;2.53;;;2.08;;
29202;SDS011;16245;51.170;4.884;2023-03-24T02:00:40;3.63;;;2.60;;
29202;SDS011;16245;51.170;4.884;2023-03-24T02:03:08;3.60;;;2.70;;
29202;SDS011;16245;51.170;4.884;2023-03-24T02:05:45;4.45;;;2.55;;
29202;SDS011;16245;51.170;4.884;2023-03-24T02:08:21;3.05;;;2.55;;
29202;SDS011;16245;51.170;4.884;2023-03-24T02:10:55;2.95;;;2.28;;
29202;SDS011;16245;51.170;4.884;2023-03-24T02:13:23;3.38;;;2.40;;
29202;SDS011;16245;51.170;4.884;2023-03-24T02:21:32;3.10;;;2.08;;
29202;SDS011;16245;51.170;4.884;2023-03-24T02:30:06;3.40;;;2.13;;
29202;SDS011;16245;51.170;4.884;2023-03-24T02:40:45;4.40;;;2.30;;
29202;SDS011;16245;51.170;4.884;2023-03-24T02:56:45;2.10;;;1.35;;
29202;SDS011;16245;51.170;4.884;2023-03-24T03:02:28;2.80;;;1.80;;
29202;SDS011;16245;51.170;4.884;2023-03-24T03:05:05;2.88;;;1.20;;
29202;SDS011;16245;51.170;4.884;2023-03-24T03:07:38;2.28;;;1.48;;
29202;SDS011;16245;51.170;4.884;2023-03-24T03:12:43;2.00;;;1.42;;
29202;SDS011;16245;51.170;4.884;2023-03-24T03:15:18;1.10;;;0.98;;
29202;SDS011;16245;51.170;4.884;2023-03-24T03:17:59;3.88;;;1.27;;
29202;SDS011;16245;51.170;4.884;2023-03-24T03:20:34;5.13;;;1.23;;
29202;SDS011;16245;51.170;4.884;2023-03-24T03:23:08;2.30;;;1.10;;
29202;SDS011;16245;51.170;4.884;2023-03-24T03:25:39;2.28;;;1.10;;
29202;SDS011;16245;51.170;4.884;2023-03-24T03:28:14;4.10;;;1.20;;
29202;SDS011;16245;51.170;4.884;2023-03-24T03:30:46;4.95;;;1.17;;
29202;SDS011;16245;51.170;4.884;2023-03-24T03:33:21;4.55;;;1.20;;
29202;SDS011;16245;51.170;4.884;2023-03-24T03:36:33;4.82;;;1.45;;
29202;SDS011;16245;51.170;4.884;2023-03-24T03:39:22;3.90;;;1.17;;
29202;SDS011;16245;51.170;4.884;2023-03-24T03:41:52;2.80;;;1.23;;
29202;SDS011;16245;51.170;4.884;2023-03-24T03:44:19;5.57;;;1.45;;
29202;SDS011;16245;51.170;4.884;2023-03-24T03:46:45;3.67;;;1.50;;
29202;SDS011;16245;51.170;4.884;2023-03-24T03:49:11;7.22;;;1.30;;
29202;SDS011;16245;51.170;4.884;2023-03-24T03:51:36;6.32;;;1.52;;
29202;SDS011;16245;51.170;4.884;2023-03-24T03:54:03;8.35;;;1.80;;
29202;SDS011;16245;51.170;4.884;2023-03-24T03:56:32;9.07;;;2.10;;
29202;SDS011;16245;51.170;4.884;2023-03-24T03:58:59;8.88;;;1.77;;
29202;SDS011;16245;51.170;4.884;2023-03-24T04:01:27;10.00;;;1.95;;
29202;SDS011;16245;51.170;4.884;2023-03-24T04:06:43;7.05;;;1.70;;
29202;SDS011;16245;51.170;4.884;2023-03-24T04:20:21;8.10;;;2.20;;
29202;SDS011;16245;51.170;4.884;2023-03-24T04:31:39;8.18;;;1.80;;
29202;SDS011;16245;51.170;4.884;2023-03-24T04:34:27;5.95;;;1.70;;
29202;SDS011;16245;51.170;4.884;2023-03-24T04:39:29;9.95;;;2.35;;
29202;SDS011;16245;51.170;4.884;2023-03-24T04:42:03;7.28;;;1.75;;
29202;SDS011;16245;51.170;4.884;2023-03-24T04:44:34;5.63;;;2.03;;
29202;SDS011;16245;51.170;4.884;2023-03-24T04:47:01;10.85;;;2.13;;
29202;SDS011;16245;51.170;4.884;2023-03-24T04:49:27;5.50;;;1.90;;
29202;SDS011;16245;51.170;4.884;2023-03-24T04:51:53;9.02;;;2.17;;
29202;SDS011;16245;51.170;4.884;2023-03-24T04:54:20;10.30;;;2.30;;
29202;SDS011;16245;51.170;4.884;2023-03-24T04:56:53;9.80;;;2.20;;
29202;SDS011;16245;51.170;4.884;2023-03-24T04:59:20;13.57;;;2.83;;
29202;SDS011;16245;51.170;4.884;2023-03-24T05:01:46;8.50;;;2.22;;
29202;SDS011;16245;51.170;4.884;2023-03-24T05:04:20;12.27;;;2.53;;
29202;SDS011;16245;51.170;4.884;2023-03-24T05:06:47;15.70;;;3.10;;
29202;SDS011;16245;51.170;4.884;2023-03-24T05:09:14;16.83;;;2.38;;
29202;SDS011;16245;51.170;4.884;2023-03-24T05:11:42;11.23;;;2.63;;
29202;SDS011;16245;51.170;4.884;2023-03-24T05:14:08;10.52;;;2.70;;
29202;SDS011;16245;51.170;4.884;2023-03-24T05:16:34;12.02;;;2.75;;
29202;SDS011;16245;51.170;4.884;2023-03-24T05:18:59;14.93;;;3.55;;
29202;SDS011;16245;51.170;4.884;2023-03-24T05:21:26;14.15;;;2.50;;
29202;SDS011;16245;51.170;4.884;2023-03-24T05:23:51;9.20;;;2.22;;
29202;SDS011;16245;51.170;4.884;2023-03-24T05:26:17;13.30;;;2.25;;
29202;SDS011;16245;51.170;4.884;2023-03-24T05:28:43;12.18;;;2.47;;
29202;SDS011;16245;51.170;4.884;2023-03-24T05:31:09;10.98;;;2.60;;
29202;SDS011;16245;51.170;4.884;2023-03-24T05:33:34;14.07;;;2.40;;
29202;SDS011;16245;51.170;4.884;2023-03-24T05:36:00;10.77;;;2.33;;
29202;SDS011;16245;51.170;4.884;2023-03-24T05:38:26;10.52;;;2.38;;
29202;SDS011;16245;51.170;4.884;2023-03-24T05:40:54;9.65;;;2.13;;
29202;SDS011;16245;51.170;4.884;2023-03-24T05:43:21;12.15;;;3.40;;
29202;SDS011;16245;51.170;4.884;2023-03-24T05:45:47;13.68;;;2.90;;
29202;SDS011;16245;51.170;4.884;2023-03-24T05:48:13;12.52;;;2.90;;
29202;SDS011;16245;51.170;4.884;2023-03-24T05:50:38;13.07;;;3.03;;
29202;SDS011;16245;51.170;4.884;2023-03-24T05:53:04;14.57;;;3.35;;
29202;SDS011;16245;51.170;4.884;2023-03-24T05:55:30;8.82;;;2.50;;
29202;SDS011;16245;51.170;4.884;2023-03-24T05:57:56;9.15;;;2.78;;
29202;SDS011;16245;51.170;4.884;2023-03-24T06:00:21;12.95;;;2.17;;
29202;SDS011;16245;51.170;4.884;2023-03-24T06:02:47;13.40;;;3.03;;
29202;SDS011;16245;51.170;4.884;2023-03-24T06:05:13;16.42;;;3.45;;
29202;SDS011;16245;51.170;4.884;2023-03-24T06:07:39;14.35;;;3.20;;
29202;SDS011;16245;51.170;4.884;2023-03-24T06:10:10;15.43;;;3.30;;
29202;SDS011;16245;51.170;4.884;2023-03-24T06:12:38;14.35;;;2.38;;
29202;SDS011;16245;51.170;4.884;2023-03-24T06:15:05;12.15;;;2.42;;
29202;SDS011;16245;51.170;4.884;2023-03-24T06:17:32;13.35;;;2.92;;
29202;SDS011;16245;51.170;4.884;2023-03-24T06:19:58;12.00;;;2.33;;
29202;SDS011;16245;51.170;4.884;2023-03-24T06:22:29;10.43;;;2.90;;
29202;SDS011;16245;51.170;4.884;2023-03-24T06:24:56;14.50;;;2.75;;
29202;SDS011;16245;51.170;4.884;2023-03-24T06:27:23;15.60;;;3.25;;
29202;SDS011;16245;51.170;4.884;2023-03-24T06:29:52;13.75;;;2.72;;
29202;SDS011;16245;51.170;4.884;2023-03-24T06:32:19;10.10;;;2.88;;
29202;SDS011;16245;51.170;4.884;2023-03-24T06:34:45;19.58;;;3.40;;
29202;SDS011;16245;51.170;4.884;2023-03-24T06:37:10;11.90;;;2.15;;
29202;SDS011;16245;51.170;4.884;2023-03-24T06:39:36;16.80;;;2.80;;
29202;SDS011;16245;51.170;4.884;2023-03-24T06:42:02;11.35;;;2.67;;
29202;SDS011;16245;51.170;4.884;2023-03-24T06:44:28;11.63;;;2.25;;
29202;SDS011;16245;51.170;4.884;2023-03-24T06:46:54;9.63;;;2.70;;
29202;SDS011;16245;51.170;4.884;2023-03-24T06:49:19;17.50;;;3.17;;
29202;SDS011;16245;51.170;4.884;2023-03-24T06:51:45;10.65;;;2.97;;
29202;SDS011;16245;51.170;4.884;2023-03-24T06:54:11;13.07;;;3.20;;
29202;SDS011;16245;51.170;4.884;2023-03-24T06:56:36;12.57;;;3.28;;
29202;SDS011;16245;51.170;4.884;2023-03-24T06:59:02;13.95;;;3.72;;
29202;SDS011;16245;51.170;4.884;2023-03-24T07:01:28;10.88;;;2.92;;
29202;SDS011;16245;51.170;4.884;2023-03-24T07:03:54;15.30;;;3.33;;
29202;SDS011;16245;51.170;4.884;2023-03-24T07:06:20;17.50;;;3.28;;
29202;SDS011;16245;51.170;4.884;2023-03-24T07:08:47;13.52;;;2.58;;
29202;SDS011;16245;51.170;4.884;2023-03-24T07:11:13;11.40;;;3.05;;
29202;SDS011;16245;51.170;4.884;2023-03-24T07:13:40;20.00;;;3.75;;
29202;SDS011;16245;51.170;4.884;2023-03-24T07:16:06;9.93;;;3.22;;
29202;SDS011;16245;51.170;4.884;2023-03-24T07:18:32;13.73;;;2.53;;
29202;SDS011;16245;51.170;4.884;2023-03-24T07:20:58;17.60;;;2.92;;
29202;SDS011;16245;51.170;4.884;2023-03-24T07:23:24;13.32;;;3.05;;
29202;SDS011;16245;51.170;4.884;2023-03-24T07:25:51;14.30;;;3.13;;
29202;SDS011;16245;51.170;4.884;2023-03-24T07:28:17;16.70;;;3.08;;
29202;SDS011;16245;51.170;4.884;2023-03-24T07:30:43;13.00;;;3.03;;
29202;SDS011;16245;51.170;4.884;2023-03-24T07:33:09;11.68;;;2.88;;
29202;SDS011;16245;51.170;4.884;2023-03-24T07:35:36;15.25;;;2.63;;
29202;SDS011;16245;51.170;4.884;2023-03-24T07:38:03;16.58;;;3.40;;
29202;SDS011;16245;51.170;4.884;2023-03-24T07:40:28;17.50;;;3.50;;
29202;SDS011;16245;51.170;4.884;2023-03-24T07:42:55;13.00;;;2.78;;
29202;SDS011;16245;51.170;4.884;2023-03-24T07:45:24;14.13;;;3.08;;
29202;SDS011;16245;51.170;4.884;2023-03-24T07:47:52;10.48;;;2.40;;
29202;SDS011;16245;51.170;4.884;2023-03-24T07:50:18;12.07;;;2.85;;
29202;SDS011;16245;51.170;4.884;2023-03-24T07:52:48;12.93;;;2.80;;
29202;SDS011;16245;51.170;4.884;2023-03-24T07:55:14;16.08;;;2.70;;
29202;SDS011;16245;51.170;4.884;2023-03-24T07:57:49;14.32;;;2.67;;
29202;SDS011;16245;51.170;4.884;2023-03-24T08:00:16;12.63;;;3.35;;
29202;SDS011;16245;51.170;4.884;2023-03-24T08:02:44;12.13;;;2.45;;
29202;SDS011;16245;51.170;4.884;2023-03-24T08:05:11;13.25;;;3.17;;
29202;SDS011;16245;51.170;4.884;2023-03-24T08:07:44;11.18;;;2.47;;
29202;SDS011;16245;51.170;4.884;2023-03-24T08:10:18;13.73;;;3.60;;
29202;SDS011;16245;51.170;4.884;2023-03-24T08:12:45;11.15;;;2.50;;
29202;SDS011;16245;51.170;4.884;2023-03-24T08:15:11;16.90;;;2.65;;
29202;SDS011;16245;51.170;4.884;2023-03-24T08:17:38;21.65;;;3.53;;
29202;SDS011;16245;51.170;4.884;2023-03-24T08:20:04;14.18;;;3.00;;
29202;SDS011;16245;51.170;4.884;2023-03-24T08:22:39;14.52;;;3.00;;
29202;SDS011;16245;51.170;4.884;2023-03-24T08:25:06;11.35;;;3.13;;
29202;SDS011;16245;51.170;4.884;2023-03-24T08:27:37;16.63;;;2.67;;
29202;SDS011;16245;51.170;4.884;2023-03-24T08:30:04;15.60;;;3.65;;
29202;SDS011;16245;51.170;4.884;2023-03-24T08:32:32;12.75;;;2.67;;
29202;SDS011;16245;51.170;4.884;2023-03-24T08:35:02;11.80;;;3.05;;
29202;SDS011;16245;51.170;4.884;2023-03-24T08:37:38;13.00;;;2.92;;
29202;SDS011;16245;51.170;4.884;2023-03-24T08:40:07;10.95;;;2.60;;
29202;SDS011;16245;51.170;4.884;2023-03-24T08:42:37;12.98;;;2.67;;
29202;SDS011;16245;51.170;4.884;2023-03-24T08:45:03;9.48;;;2.70;;
29202;SDS011;16245;51.170;4.884;2023-03-24T08:47:29;9.88;;;2.92;;
29202;SDS011;16245;51.170;4.884;2023-03-24T08:49:55;9.82;;;2.80;;
29202;SDS011;16245;51.170;4.884;2023-03-24T08:52:24;13.63;;;2.70;;
29202;SDS011;16245;51.170;4.884;2023-03-24T08:54:50;10.15;;;2.30;;
29202;SDS011;16245;51.170;4.884;2023-03-24T08:57:16;19.30;;;3.67;;
29202;SDS011;16245;51.170;4.884;2023-03-24T08:59:42;8.30;;;2.65;;
29202;SDS011;16245;51.170;4.884;2023-03-24T09:02:11;8.88;;;2.40;;
29202;SDS011;16245;51.170;4.884;2023-03-24T09:04:37;7.97;;;2.33;;
29202;SDS011;16245;51.170;4.884;2023-03-24T09:07:03;13.55;;;2.85;;
29202;SDS011;16245;51.170;4.884;2023-03-24T09:09:30;10.15;;;2.85;;
29202;SDS011;16245;51.170;4.884;2023-03-24T09:11:57;10.57;;;2.40;;
29202;SDS011;16245;51.170;4.884;2023-03-24T09:14:22;10.02;;;2.05;;
29202;SDS011;16245;51.170;4.884;2023-03-24T09:16:48;10.35;;;3.45;;
29202;SDS011;16245;51.170;4.884;2023-03-24T09:19:20;7.13;;;1.88;;
29202;SDS011;16245;51.170;4.884;2023-03-24T09:21:46;10.60;;;2.72;;
29202;SDS011;16245;51.170;4.884;2023-03-24T09:24:12;9.88;;;2.30;;
29202;SDS011;16245;51.170;4.884;2023-03-24T09:26:38;11.38;;;3.13;;
29202;SDS011;16245;51.170;4.884;2023-03-24T09:29:04;9.88;;;2.30;;
29202;SDS011;16245;51.170;4.884;2023-03-24T09:31:30;11.88;;;2.90;;
29202;SDS011;16245;51.170;4.884;2023-03-24T09:33:56;10.52;;;2.28;;
29202;SDS011;16245;51.170;4.884;2023-03-24T09:36:22;10.70;;;2.72;;
29202;SDS011;16245;51.170;4.884;2023-03-24T09:38:47;9.95;;;2.22;;
29202;SDS011;16245;51.170;4.884;2023-03-24T09:41:17;7.97;;;2.10;;
29202;SDS011;16245;51.170;4.884;2023-03-24T09:44:29;13.88;;;2.45;;
29202;SDS011;16245;51.170;4.884;2023-03-24T09:46:56;14.82;;;3.33;;
29202;SDS011;16245;51.170;4.884;2023-03-24T09:49:28;15.73;;;2.80;;
29202;SDS011;16245;51.170;4.884;2023-03-24T09:52:08;13.77;;;2.78;;
29202;SDS011;16245;51.170;4.884;2023-03-24T09:57:04;10.95;;;2.15;;
29202;SDS011;16245;51.170;4.884;2023-03-24T09:59:56;12.68;;;2.38;;
29202;SDS011;16245;51.170;4.884;2023-03-24T10:02:21;12.77;;;2.60;;
29202;SDS011;16245;51.170;4.884;2023-03-24T10:04:48;11.35;;;2.85;;
29202;SDS011;16245;51.170;4.884;2023-03-24T10:09:57;12.68;;;2.67;;
29202;SDS011;16245;51.170;4.884;2023-03-24T10:12:39;10.02;;;2.40;;
29202;SDS011;16245;51.170;4.884;2023-03-24T10:17:55;8.48;;;2.47;;
29202;SDS011;16245;51.170;4.884;2023-03-24T10:31:56;8.52;;;2.25;;
29202;SDS011;16245;51.170;4.884;2023-03-24T10:34:46;13.45;;;2.67;;
29202;SDS011;16245;51.170;4.884;2023-03-24T10:37:17;14.15;;;3.53;;
29202;SDS011;16245;51.170;4.884;2023-03-24T10:39:44;10.00;;;1.80;;
29202;SDS011;16245;51.170;4.884;2023-03-24T10:42:12;6.75;;;2.65;;
29202;SDS011;16245;51.170;4.884;2023-03-24T10:44:41;11.02;;;2.80;;
29202;SDS011;16245;51.170;4.884;2023-03-24T10:47:08;7.88;;;1.77;;
29202;SDS011;16245;51.170;4.884;2023-03-24T10:49:37;9.77;;;1.88;;
29202;SDS011;16245;51.170;4.884;2023-03-24T10:52:15;9.35;;;2.60;;
29202;SDS011;16245;51.170;4.884;2023-03-24T10:54:44;12.95;;;2.63;;
29202;SDS011;16245;51.170;4.884;2023-03-24T10:57:22;8.45;;;2.13;;
29202;SDS011;16245;51.170;4.884;2023-03-24T10:59:52;10.30;;;2.70;;
29202;SDS011;16245;51.170;4.884;2023-03-24T11:02:24;11.05;;;2.30;;
29202;SDS011;16245;51.170;4.884;2023-03-24T11:04:57;11.57;;;2.88;;
29202;SDS011;16245;51.170;4.884;2023-03-24T11:07:27;8.65;;;2.83;;
29202;SDS011;16245;51.170;4.884;2023-03-24T11:10:01;9.23;;;2.15;;
29202;SDS011;16245;51.170;4.884;2023-03-24T11:12:36;6.97;;;2.13;;
29202;SDS011;16245;51.170;4.884;2023-03-24T11:15:14;11.18;;;2.30;;
29202;SDS011;16245;51.170;4.884;2023-03-24T11:17:42;9.70;;;2.33;;
29202;SDS011;16245;51.170;4.884;2023-03-24T11:20:15;7.13;;;2.17;;
29202;SDS011;16245;51.170;4.884;2023-03-24T11:22:56;6.45;;;2.28;;
29202;SDS011;16245;51.170;4.884;2023-03-24T11:25:26;12.10;;;2.85;;
29202;SDS011;16245;51.170;4.884;2023-03-24T11:27:58;7.95;;;2.65;;
29202;SDS011;16245;51.170;4.884;2023-03-24T11:30:35;7.13;;;1.80;;
29202;SDS011;16245;51.170;4.884;2023-03-24T11:33:50;10.23;;;2.10;;
29202;SDS011;16245;51.170;4.884;2023-03-24T11:41:42;9.43;;;1.95;;
29202;SDS011;16245;51.170;4.884;2023-03-24T11:44:29;10.73;;;2.13;;
29202;SDS011;16245;51.170;4.884;2023-03-24T11:47:02;11.32;;;2.88;;
29202;SDS011;16245;51.170;4.884;2023-03-24T11:49:37;10.18;;;2.83;;
29202;SDS011;16245;51.170;4.884;2023-03-24T11:52:21;10.63;;;3.45;;
29202;SDS011;16245;51.170;4.884;2023-03-24T11:54:55;12.35;;;2.70;;
29202;SDS011;16245;51.170;4.884;2023-03-24T11:57:44;10.20;;;2.80;;
29202;SDS011;16245;51.170;4.884;2023-03-24T12:00:21;11.05;;;3.47;;
29202;SDS011;16245;51.170;4.884;2023-03-24T12:08:53;10.60;;;2.60;;
29202;SDS011;16245;51.170;4.884;2023-03-24T12:14:17;6.95;;;2.25;;
29202;SDS011;16245;51.170;4.884;2023-03-24T12:17:14;9.15;;;2.50;;
29202;SDS011;16245;51.170;4.884;2023-03-24T12:19:50;6.25;;;1.52;;
29202;SDS011;16245;51.170;4.884;2023-03-24T12:22:42;6.22;;;1.38;;
29202;SDS011;16245;51.170;4.884;2023-03-24T12:39:09;3.25;;;1.23;;
29202;SDS011;16245;51.170;4.884;2023-03-24T12:41:53;3.97;;;1.40;;
29202;SDS011;16245;51.170;4.884;2023-03-24T12:44:37;5.45;;;1.58;;
29202;SDS011;16245;51.170;4.884;2023-03-24T12:47:18;5.45;;;1.75;;
29202;SDS011;16245;51.170;4.884;2023-03-24T12:50:07;6.93;;;2.25;;
29202;SDS011;16245;51.170;4.884;2023-03-24T12:58:20;6.85;;;1.90;;
29202;SDS011;16245;51.170;4.884;2023-03-24T13:01:15;8.68;;;2.70;;
29202;SDS011;16245;51.170;4.884;2023-03-24T13:06:29;6.70;;;2.00;;
29202;SDS011;16245;51.170;4.884;2023-03-24T13:09:02;11.50;;;2.75;;
29202;SDS011;16245;51.170;4.884;2023-03-24T13:12:14;11.07;;;2.30;;
29202;SDS011;16245;51.170;4.884;2023-03-24T13:17:44;5.97;;;2.35;;
29202;SDS011;16245;51.170;4.884;2023-03-24T13:20:12;6.05;;;1.50;;
29202;SDS011;16245;51.170;4.884;2023-03-24T13:22:44;5.68;;;1.40;;
29202;SDS011;16245;51.170;4.884;2023-03-24T13:25:30;6.97;;;1.63;;
29202;SDS011;16245;51.170;4.884;2023-03-24T13:28:09;3.22;;;1.35;;
29202;SDS011;16245;51.170;4.884;2023-03-24T13:30:41;4.82;;;1.67;;
29202;SDS011;16245;51.170;4.884;2023-03-24T13:33:15;6.60;;;1.88;;
29202;SDS011;16245;51.170;4.884;2023-03-24T13:38:54;7.07;;;1.98;;
29202;SDS011;16245;51.170;4.884;2023-03-24T13:41:23;6.45;;;1.95;;
29202;SDS011;16245;51.170;4.884;2023-03-24T13:43:59;7.65;;;2.20;;
29202;SDS011;16245;51.170;4.884;2023-03-24T13:46:30;10.07;;;2.70;;
29202;SDS011;16245;51.170;4.884;2023-03-24T13:48:56;8.00;;;2.17;;
29202;SDS011;16245;51.170;4.884;2023-03-24T13:51:27;9.55;;;2.45;;
29202;SDS011;16245;51.170;4.884;2023-03-24T13:56:38;8.25;;;2.22;;
29202;SDS011;16245;51.170;4.884;2023-03-24T14:02:18;6.07;;;1.42;;
29202;SDS011;16245;51.170;4.884;2023-03-24T14:04:47;6.50;;;1.67;;
29202;SDS011;16245;51.170;4.884;2023-03-24T14:07:27;5.57;;;1.55;;
29202;SDS011;16245;51.170;4.884;2023-03-24T14:10:00;4.13;;;1.02;;
29202;SDS011;16245;51.170;4.884;2023-03-24T14:12:35;5.05;;;1.00;;
29202;SDS011;16245;51.170;4.884;2023-03-24T14:26:06;6.70;;;1.70;;
29202;SDS011;16245;51.170;4.884;2023-03-24T14:28:53;5.53;;;1.38;;
29202;SDS011;16245;51.170;4.884;2023-03-24T14:36:18;8.27;;;1.95;;
29202;SDS011;16245;51.170;4.884;2023-03-24T14:38:51;8.85;;;1.42;;
29202;SDS011;16245;51.170;4.884;2023-03-24T14:41:25;9.73;;;1.98;;
29202;SDS011;16245;51.170;4.884;2023-03-24T14:43:56;7.53;;;2.00;;
29202;SDS011;16245;51.170;4.884;2023-03-24T14:49:23;7.28;;;1.38;;
29202;SDS011;16245;51.170;4.884;2023-03-24T14:54:36;4.53;;;1.60;;
29202;SDS011;16245;51.170;4.884;2023-03-24T14:57:03;3.15;;;0.98;;
29202;SDS011;16245;51.170;4.884;2023-03-24T15:02:15;4.55;;;1.15;;
29202;SDS011;16245;51.170;4.884;2023-03-24T15:07:43;6.28;;;1.60;;
29202;SDS011;16245;51.170;4.884;2023-03-24T15:10:14;4.55;;;1.13;;
29202;SDS011;16245;51.170;4.884;2023-03-24T15:12:44;8.05;;;2.22;;
29202;SDS011;16245;51.170;4.884;2023-03-24T15:17:43;3.38;;;1.40;;
29202;SDS011;16245;51.170;4.884;2023-03-24T15:20:24;7.50;;;2.00;;
29202;SDS011;16245;51.170;4.884;2023-03-24T15:22:53;7.18;;;1.45;;
29202;SDS011;16245;51.170;4.884;2023-03-24T15:25:28;8.23;;;1.95;;
29202;SDS011;16245;51.170;4.884;2023-03-24T15:27:56;5.13;;;1.70;;
29202;SDS011;16245;51.170;4.884;2023-03-24T15:30:22;5.50;;;2.13;;
29202;SDS011;16245;51.170;4.884;2023-03-24T15:32:48;6.18;;;2.03;;
29202;SDS011;16245;51.170;4.884;2023-03-24T15:35:17;10.98;;;1.90;;
29202;SDS011;16245;51.170;4.884;2023-03-24T15:37:54;8.93;;;2.30;;
29202;SDS011;16245;51.170;4.884;2023-03-24T15:42:56;12.35;;;3.35;;
29202;SDS011;16245;51.170;4.884;2023-03-24T15:47:56;6.07;;;1.52;;
29202;SDS011;16245;51.170;4.884;2023-03-24T15:53:19;5.72;;;1.52;;
29202;SDS011;16245;51.170;4.884;2023-03-24T15:56:03;9.25;;;1.80;;
29202;SDS011;16245;51.170;4.884;2023-03-24T15:58:53;7.57;;;2.00;;
29202;SDS011;16245;51.170;4.884;2023-03-24T16:01:25;6.55;;;1.52;;
29202;SDS011;16245;51.170;4.884;2023-03-24T16:03:55;3.67;;;1.45;;
29202;SDS011;16245;51.170;4.884;2023-03-24T16:06:28;8.35;;;1.58;;
29202;SDS011;16245;51.170;4.884;2023-03-24T16:08:59;6.57;;;1.90;;
29202;SDS011;16245;51.170;4.884;2023-03-24T16:11:29;4.50;;;1.40;;
29202;SDS011;16245;51.170;4.884;2023-03-24T16:13:55;5.47;;;1.63;;
29202;SDS011;16245;51.170;4.884;2023-03-24T16:16:23;5.03;;;1.27;;
29202;SDS011;16245;51.170;4.884;2023-03-24T16:18:54;2.78;;;1.05;;
29202;SDS011;16245;51.170;4.884;2023-03-24T16:21:25;6.13;;;1.40;;
29202;SDS011;16245;51.170;4.884;2023-03-24T16:23:53;5.07;;;1.30;;
29202;SDS011;16245;51.170;4.884;2023-03-24T16:26:21;4.95;;;1.48;;
29202;SDS011;16245;51.170;4.884;2023-03-24T16:28:48;6.72;;;1.33;;
29202;SDS011;16245;51.170;4.884;2023-03-24T16:31:25;6.53;;;1.90;;
29202;SDS011;16245;51.170;4.884;2023-03-24T16:33:57;5.53;;;1.98;;
29202;SDS011;16245;51.170;4.884;2023-03-24T16:36:23;4.82;;;1.50;;
29202;SDS011;16245;51.170;4.884;2023-03-24T16:38:58;6.72;;;1.73;;
29202;SDS011;16245;51.170;4.884;2023-03-24T16:41:25;7.00;;;1.55;;
29202;SDS011;16245;51.170;4.884;2023-03-24T16:43:52;9.75;;;1.85;;
29202;SDS011;16245;51.170;4.884;2023-03-24T16:48:56;6.53;;;1.80;;
29202;SDS011;16245;51.170;4.884;2023-03-24T16:51:22;8.30;;;2.20;;
29202;SDS011;16245;51.170;4.884;2023-03-24T16:53:48;7.95;;;1.30;;
29202;SDS011;16245;51.170;4.884;2023-03-24T16:56:17;5.72;;;1.45;;
29202;SDS011;16245;51.170;4.884;2023-03-24T16:58:45;8.10;;;1.85;;
29202;SDS011;16245;51.170;4.884;2023-03-24T17:01:26;9.52;;;1.70;;
29202;SDS011;16245;51.170;4.884;2023-03-24T17:04:09;5.93;;;1.67;;
29202;SDS011;16245;51.170;4.884;2023-03-24T17:06:38;7.00;;;1.50;;
29202;SDS011;16245;51.170;4.884;2023-03-24T17:09:05;7.88;;;1.65;;
29202;SDS011;16245;51.170;4.884;2023-03-24T17:11:36;5.82;;;1.63;;
29202;SDS011;16245;51.170;4.884;2023-03-24T17:14:02;5.90;;;1.08;;
29202;SDS011;16245;51.170;4.884;2023-03-24T17:16:32;5.18;;;0.93;;
29202;SDS011;16245;51.170;4.884;2023-03-24T17:19:04;2.65;;;1.15;;
29202;SDS011;16245;51.170;4.884;2023-03-24T17:21:31;5.47;;;1.38;;
29202;SDS011;16245;51.170;4.884;2023-03-24T17:23:58;7.25;;;2.30;;
29202;SDS011;16245;51.170;4.884;2023-03-24T17:26:25;4.90;;;1.60;;
29202;SDS011;16245;51.170;4.884;2023-03-24T17:28:50;8.07;;;2.25;;
29202;SDS011;16245;51.170;4.884;2023-03-24T17:31:16;5.93;;;1.98;;
29202;SDS011;16245;51.170;4.884;2023-03-24T17:33:46;6.63;;;1.60;;
29202;SDS011;16245;51.170;4.884;2023-03-24T17:36:13;6.13;;;1.90;;
29202;SDS011;16245;51.170;4.884;2023-03-24T17:38:40;5.60;;;1.52;;
29202;SDS011;16245;51.170;4.884;2023-03-24T17:41:07;6.60;;;1.52;;
29202;SDS011;16245;51.170;4.884;2023-03-24T17:43:33;3.28;;;1.58;;
29202;SDS011;16245;51.170;4.884;2023-03-24T17:45:59;5.10;;;1.60;;
29202;SDS011;16245;51.170;4.884;2023-03-24T17:48:27;7.00;;;1.70;;
29202;SDS011;16245;51.170;4.884;2023-03-24T17:50:53;8.85;;;1.45;;
29202;SDS011;16245;51.170;4.884;2023-03-24T17:53:20;9.07;;;1.85;;
29202;SDS011;16245;51.170;4.884;2023-03-24T17:55:50;6.13;;;1.45;;
29202;SDS011;16245;51.170;4.884;2023-03-24T17:58:17;5.53;;;1.50;;